sensor_id;sensor_type;location;lat;lon;timestamp;pressure;altitude;pressure_sealevel;temperature;humidity
11542;BME280;5827;49.482;7.716;2023-05-03T00:00:32;99776.31;;;7.67;100.00
11542;BME280;5827;49.482;7.716;2023-05-03T00:02:35;99777.75;;;7.63;100.00
11542;BME280;5827;49.482;7.716;2023-05-03T00:04:39;99780.41;;;7.63;100.00
11542;BME280;5827;49.482;7.716;2023-05-03T00:06:41;99775.88;;;7.63;100.00
11542;BME280;5827;49.482;7.716;2023-05-03T00:08:43;99775.47;;;7.60;100.00
11542;BME280;5827;49.482;7.716;2023-05-03T00:10:44;99785.47;;;7.51;100.00
11542;BME280;5827;49.482;7.716;2023-05-03T00:12:46;99777.28;;;7.53;100.00
11542;BME280;5827;49.482;7.716;2023-05-03T00:14:47;99782.63;;;7.53;100.00
11542;BME280;5827;49.482;7.716;2023-05-03T00:16:49;99777.69;;;7.50;100.00
11542;BME280;5827;49.482;7.716;2023-05-03T00:18:51;99771.53;;;7.49;100.00
11542;BME280;5827;49.482;7.716;2023-05-03T00:20:53;99763.50;;;7.43;100.00
11542;BME280;5827;49.482;7.716;2023-05-03T00:22:54;99768.78;;;7.29;100.00
11542;BME280;5827;49.482;7.716;2023-05-03T00:24:57;99766.94;;;7.36;100.00
11542;BME280;5827;49.482;7.716;2023-05-03T00:26:58;99767.19;;;7.42;100.00
11542;BME280;5827;49.482;7.716;2023-05-03T00:29:00;99771.47;;;7.36;100.00
11542;BME280;5827;49.482;7.716;2023-05-03T00:31:05;99761.78;;;7.28;100.00
11542;BME280;5827;49.482;7.716;2023-05-03T00:33:07;99764.88;;;7.32;100.00
11542;BME280;5827;49.482;7.716;2023-05-03T00:35:10;99762.81;;;7.27;100.00
11542;BME280;5827;49.482;7.716;2023-05-03T00:37:11;99767.28;;;7.20;100.00
11542;BME280;5827;49.482;7.716;2023-05-03T00:39:13;99756.81;;;7.19;100.00
11542;BME280;5827;49.482;7.716;2023-05-03T00:41:15;99755.16;;;7.18;100.00
11542;BME280;5827;49.482;7.716;2023-05-03T00:43:16;99749.00;;;7.10;100.00
11542;BME280;5827;49.482;7.716;2023-05-03T00:45:18;99742.63;;;7.11;100.00
11542;BME280;5827;49.482;7.716;2023-05-03T00:47:19;99749.16;;;7.02;100.00
11542;BME280;5827;49.482;7.716;2023-05-03T00:49:23;99748.56;;;7.07;100.00
11542;BME280;5827;49.482;7.716;2023-05-03T00:51:26;99740.34;;;7.02;100.00
11542;BME280;5827;49.482;7.716;2023-05-03T00:53:28;99735.97;;;6.94;100.00
11542;BME280;5827;49.482;7.716;2023-05-03T00:55:32;99739.25;;;6.96;100.00
11542;BME280;5827;49.482;7.716;2023-05-03T00:57:33;99739.03;;;6.91;100.00
11542;BME280;5827;49.482;7.716;2023-05-03T00:59:35;99736.34;;;6.91;100.00
11542;BME280;5827;49.482;7.716;2023-05-03T01:01:37;99740.03;;;6.90;100.00
11542;BME280;5827;49.482;7.716;2023-05-03T01:03:39;99737.34;;;6.83;100.00
11542;BME280;5827;49.482;7.716;2023-05-03T01:05:48;99735.31;;;6.85;100.00
11542;BME280;5827;49.482;7.716;2023-05-03T01:07:58;99737.75;;;6.87;100.00
11542;BME280;5827;49.482;7.716;2023-05-03T01:10:16;99733.22;;;6.81;100.00
11542;BME280;5827;49.482;7.716;2023-05-03T01:12:25;99725.50;;;6.58;100.00
11542;BME280;5827;49.482;7.716;2023-05-03T01:14:34;99718.63;;;6.70;100.00
11542;BME280;5827;49.482;7.716;2023-05-03T01:16:39;99729.31;;;6.77;100.00
11542;BME280;5827;49.482;7.716;2023-05-03T01:18:45;99728.78;;;6.60;100.00
11542;BME280;5827;49.482;7.716;2023-05-03T01:20:49;99721.41;;;6.62;100.00
11542;BME280;5827;49.482;7.716;2023-05-03T01:23:05;99722.00;;;6.57;100.00
11542;BME280;5827;49.482;7.716;2023-05-03T01:25:13;99719.72;;;6.54;100.00
11542;BME280;5827;49.482;7.716;2023-05-03T01:27:15;99717.84;;;6.48;100.00
11542;BME280;5827;49.482;7.716;2023-05-03T01:29:17;99717.25;;;6.53;100.00
11542;BME280;5827;49.482;7.716;2023-05-03T01:31:22;99720.28;;;6.50;100.00
11542;BME280;5827;49.482;7.716;2023-05-03T01:33:33;99717.03;;;6.48;100.00
11542;BME280;5827;49.482;7.716;2023-05-03T01:35:40;99723.88;;;6.35;100.00
11542;BME280;5827;49.482;7.716;2023-05-03T01:37:42;99721.66;;;6.18;100.00
11542;BME280;5827;49.482;7.716;2023-05-03T01:39:48;99720.34;;;6.28;100.00
11542;BME280;5827;49.482;7.716;2023-05-03T01:41:52;99710.53;;;6.29;100.00
11542;BME280;5827;49.482;7.716;2023-05-03T01:43:55;99714.25;;;6.34;100.00
11542;BME280;5827;49.482;7.716;2023-05-03T01:45:57;99722.59;;;6.31;100.00
11542;BME280;5827;49.482;7.716;2023-05-03T01:47:59;99716.91;;;6.34;100.00
11542;BME280;5827;49.482;7.716;2023-05-03T01:50:00;99716.72;;;6.36;100.00
11542;BME280;5827;49.482;7.716;2023-05-03T01:52:02;99720.19;;;6.36;100.00
11542;BME280;5827;49.482;7.716;2023-05-03T01:54:03;99720.16;;;6.30;100.00
11542;BME280;5827;49.482;7.716;2023-05-03T01:56:05;99717.50;;;6.30;100.00
11542;BME280;5827;49.482;7.716;2023-05-03T01:58:09;99724.78;;;6.21;100.00
11542;BME280;5827;49.482;7.716;2023-05-03T02:00:11;99727.06;;;6.24;100.00
11542;BME280;5827;49.482;7.716;2023-05-03T02:02:13;99727.06;;;6.24;100.00
11542;BME280;5827;49.482;7.716;2023-05-03T02:04:14;99733.59;;;6.22;100.00
11542;BME280;5827;49.482;7.716;2023-05-03T02:06:16;99737.97;;;6.29;100.00
11542;BME280;5827;49.482;7.716;2023-05-03T02:08:17;99741.19;;;6.25;100.00
11542;BME280;5827;49.482;7.716;2023-05-03T02:10:19;99740.63;;;6.29;100.00
11542;BME280;5827;49.482;7.716;2023-05-03T02:12:20;99741.31;;;6.17;100.00
11542;BME280;5827;49.482;7.716;2023-05-03T02:14:23;99750.91;;;6.11;100.00
11542;BME280;5827;49.482;7.716;2023-05-03T02:16:24;99741.69;;;6.14;100.00
11542;BME280;5827;49.482;7.716;2023-05-03T02:18:27;99746.44;;;6.18;100.00
11542;BME280;5827;49.482;7.716;2023-05-03T02:20:30;99752.84;;;6.02;100.00
11542;BME280;5827;49.482;7.716;2023-05-03T02:22:35;99747.78;;;6.07;100.00
11542;BME280;5827;49.482;7.716;2023-05-03T02:24:37;99751.22;;;6.01;100.00
11542;BME280;5827;49.482;7.716;2023-05-03T02:26:39;99751.78;;;5.97;100.00
11542;BME280;5827;49.482;7.716;2023-05-03T02:28:40;99752.41;;;5.99;100.00
11542;BME280;5827;49.482;7.716;2023-05-03T02:30:43;99746.63;;;5.95;100.00
11542;BME280;5827;49.482;7.716;2023-05-03T02:32:44;99751.94;;;5.95;100.00
11542;BME280;5827;49.482;7.716;2023-05-03T02:34:47;99751.13;;;5.95;100.00
11542;BME280;5827;49.482;7.716;2023-05-03T02:36:49;99754.81;;;5.94;100.00
11542;BME280;5827;49.482;7.716;2023-05-03T02:38:50;99752.59;;;5.97;100.00
11542;BME280;5827;49.482;7.716;2023-05-03T02:40:52;99753.16;;;5.93;100.00
11542;BME280;5827;49.482;7.716;2023-05-03T02:42:53;99750.13;;;5.96;100.00
11542;BME280;5827;49.482;7.716;2023-05-03T02:44:55;99754.44;;;5.97;100.00
11542;BME280;5827;49.482;7.716;2023-05-03T02:46:58;99751.94;;;5.95;100.00
11542;BME280;5827;49.482;7.716;2023-05-03T02:48:59;99746.00;;;5.93;100.00
11542;BME280;5827;49.482;7.716;2023-05-03T02:51:01;99750.59;;;5.84;100.00
11542;BME280;5827;49.482;7.716;2023-05-03T02:53:02;99751.44;;;5.70;100.00
11542;BME280;5827;49.482;7.716;2023-05-03T02:55:04;99744.50;;;5.69;100.00
11542;BME280;5827;49.482;7.716;2023-05-03T02:57:06;99749.09;;;5.60;100.00
11542;BME280;5827;49.482;7.716;2023-05-03T02:59:08;99743.03;;;5.67;100.00
11542;BME280;5827;49.482;7.716;2023-05-03T03:01:09;99750.75;;;5.61;100.00
11542;BME280;5827;49.482;7.716;2023-05-03T03:03:12;99747.63;;;5.58;100.00
11542;BME280;5827;49.482;7.716;2023-05-03T03:05:14;99751.75;;;5.60;100.00
11542;BME280;5827;49.482;7.716;2023-05-03T03:07:15;99743.41;;;5.64;100.00
11542;BME280;5827;49.482;7.716;2023-05-03T03:09:17;99743.06;;;5.52;100.00
11542;BME280;5827;49.482;7.716;2023-05-03T03:11:18;99745.47;;;5.47;100.00
11542;BME280;5827;49.482;7.716;2023-05-03T03:13:20;99746.38;;;5.39;100.00
11542;BME280;5827;49.482;7.716;2023-05-03T03:15:21;99741.31;;;5.44;100.00
11542;BME280;5827;49.482;7.716;2023-05-03T03:17:23;99738.94;;;5.49;100.00
11542;BME280;5827;49.482;7.716;2023-05-03T03:19:26;99740.91;;;5.41;100.00
11542;BME280;5827;49.482;7.716;2023-05-03T03:21:28;99736.56;;;5.40;100.00
11542;BME280;5827;49.482;7.716;2023-05-03T03:23:31;99738.03;;;5.42;100.00
11542;BME280;5827;49.482;7.716;2023-05-03T03:25:33;99743.72;;;5.39;100.00
11542;BME280;5827;49.482;7.716;2023-05-03T03:27:34;99734.75;;;5.25;100.00
11542;BME280;5827;49.482;7.716;2023-05-03T03:29:36;99732.38;;;5.30;100.00
11542;BME280;5827;49.482;7.716;2023-05-03T03:31:37;99733.84;;;5.33;100.00
11542;BME280;5827;49.482;7.716;2023-05-03T03:33:39;99733.66;;;5.34;100.00
11542;BME280;5827;49.482;7.716;2023-05-03T03:35:42;99734.94;;;5.24;100.00
11542;BME280;5827;49.482;7.716;2023-05-03T03:37:43;99735.97;;;5.23;100.00
11542;BME280;5827;49.482;7.716;2023-05-03T03:39:45;99722.69;;;5.08;100.00
11542;BME280;5827;49.482;7.716;2023-05-03T03:41:46;99725.91;;;5.18;100.00
11542;BME280;5827;49.482;7.716;2023-05-03T03:43:48;99724.22;;;5.17;100.00
11542;BME280;5827;49.482;7.716;2023-05-03T03:45:49;99727.06;;;5.16;100.00
11542;BME280;5827;49.482;7.716;2023-05-03T03:47:51;99722.50;;;5.09;100.00
11542;BME280;5827;49.482;7.716;2023-05-03T03:49:52;99730.28;;;5.11;100.00
11542;BME280;5827;49.482;7.716;2023-05-03T03:51:55;99720.03;;;5.08;100.00
11542;BME280;5827;49.482;7.716;2023-05-03T03:53:57;99723.41;;;5.02;100.00
11542;BME280;5827;49.482;7.716;2023-05-03T03:55:59;99729.09;;;4.99;100.00
11542;BME280;5827;49.482;7.716;2023-05-03T03:58:00;99728.72;;;5.02;100.00
11542;BME280;5827;49.482;7.716;2023-05-03T04:00:02;99732.88;;;5.04;100.00
11542;BME280;5827;49.482;7.716;2023-05-03T04:02:09;99733.31;;;5.08;100.00
11542;BME280;5827;49.482;7.716;2023-05-03T04:04:11;99734.03;;;5.02;100.00
11542;BME280;5827;49.482;7.716;2023-05-03T04:06:12;99729.00;;;4.92;100.00
11542;BME280;5827;49.482;7.716;2023-05-03T04:08:15;99736.44;;;4.97;100.00
11542;BME280;5827;49.482;7.716;2023-05-03T04:10:16;99740.25;;;4.94;100.00
11542;BME280;5827;49.482;7.716;2023-05-03T04:12:18;99735.78;;;4.95;100.00
11542;BME280;5827;49.482;7.716;2023-05-03T04:14:19;99737.59;;;4.94;100.00
11542;BME280;5827;49.482;7.716;2023-05-03T04:16:21;99741.53;;;4.98;100.00
11542;BME280;5827;49.482;7.716;2023-05-03T04:18:22;99740.91;;;4.96;100.00
11542;BME280;5827;49.482;7.716;2023-05-03T04:20:24;99751.06;;;4.93;100.00
11542;BME280;5827;49.482;7.716;2023-05-03T04:22:26;99740.44;;;4.93;100.00
11542;BME280;5827;49.482;7.716;2023-05-03T04:24:30;99733.97;;;4.95;100.00
11542;BME280;5827;49.482;7.716;2023-05-03T04:26:32;99739.63;;;4.92;100.00
11542;BME280;5827;49.482;7.716;2023-05-03T04:28:34;99736.31;;;4.90;100.00
11542;BME280;5827;49.482;7.716;2023-05-03T04:30:35;99733.50;;;4.92;100.00
11542;BME280;5827;49.482;7.716;2023-05-03T04:32:37;99738.81;;;4.92;100.00
11542;BME280;5827;49.482;7.716;2023-05-03T04:34:39;99737.72;;;5.01;100.00
11542;BME280;5827;49.482;7.716;2023-05-03T04:36:41;99732.13;;;5.10;100.00
11542;BME280;5827;49.482;7.716;2023-05-03T04:38:44;99736.88;;;5.15;100.00
11542;BME280;5827;49.482;7.716;2023-05-03T04:40:47;99738.31;;;5.18;100.00
11542;BME280;5827;49.482;7.716;2023-05-03T04:42:49;99742.34;;;5.43;100.00
11542;BME280;5827;49.482;7.716;2023-05-03T04:44:50;99745.69;;;5.67;100.00
11542;BME280;5827;49.482;7.716;2023-05-03T04:46:52;99739.66;;;5.94;100.00
11542;BME280;5827;49.482;7.716;2023-05-03T04:48:53;99748.03;;;6.13;100.00
11542;BME280;5827;49.482;7.716;2023-05-03T04:50:55;99752.69;;;6.32;100.00
11542;BME280;5827;49.482;7.716;2023-05-03T04:52:57;99752.25;;;6.50;99.74
11542;BME280;5827;49.482;7.716;2023-05-03T04:54:59;99756.25;;;6.60;99.56
11542;BME280;5827;49.482;7.716;2023-05-03T04:57:01;99748.75;;;6.49;98.65
11542;BME280;5827;49.482;7.716;2023-05-03T04:59:03;99740.31;;;6.67;98.03
11542;BME280;5827;49.482;7.716;2023-05-03T05:01:05;99740.41;;;6.87;97.38
11542;BME280;5827;49.482;7.716;2023-05-03T05:03:07;99734.88;;;7.23;97.80
11542;BME280;5827;49.482;7.716;2023-05-03T05:05:09;99752.72;;;7.16;94.88
11542;BME280;5827;49.482;7.716;2023-05-03T05:07:11;99750.13;;;7.36;94.14
11542;BME280;5827;49.482;7.716;2023-05-03T05:09:20;99743.84;;;7.50;94.56
11542;BME280;5827;49.482;7.716;2023-05-03T05:11:22;99747.41;;;7.71;93.35
11542;BME280;5827;49.482;7.716;2023-05-03T05:13:25;99753.19;;;7.81;93.45
11542;BME280;5827;49.482;7.716;2023-05-03T05:15:26;99757.56;;;8.02;92.04
11542;BME280;5827;49.482;7.716;2023-05-03T05:17:27;99754.84;;;7.95;90.54
11542;BME280;5827;49.482;7.716;2023-05-03T05:19:29;99764.97;;;8.13;90.17
11542;BME280;5827;49.482;7.716;2023-05-03T05:21:31;99763.53;;;8.24;88.95
11542;BME280;5827;49.482;7.716;2023-05-03T05:23:33;99770.16;;;8.41;89.35
11542;BME280;5827;49.482;7.716;2023-05-03T05:25:35;99772.22;;;8.52;88.83
11542;BME280;5827;49.482;7.716;2023-05-03T05:27:36;99764.59;;;8.56;87.70
11542;BME280;5827;49.482;7.716;2023-05-03T05:29:39;99768.53;;;8.53;88.23
11542;BME280;5827;49.482;7.716;2023-05-03T05:31:41;99769.13;;;8.55;89.33
11542;BME280;5827;49.482;7.716;2023-05-03T05:33:42;99775.94;;;8.71;89.78
11542;BME280;5827;49.482;7.716;2023-05-03T05:35:44;99774.44;;;9.02;88.32
11542;BME280;5827;49.482;7.716;2023-05-03T05:37:45;99779.34;;;9.11;86.06
11542;BME280;5827;49.482;7.716;2023-05-03T05:39:47;99777.72;;;9.17;86.63
11542;BME280;5827;49.482;7.716;2023-05-03T05:41:49;99777.66;;;9.37;84.11
11542;BME280;5827;49.482;7.716;2023-05-03T05:43:51;99779.28;;;9.38;84.51
11542;BME280;5827;49.482;7.716;2023-05-03T05:45:54;99778.53;;;9.11;84.21
11542;BME280;5827;49.482;7.716;2023-05-03T05:47:55;99771.25;;;9.38;84.31
11542;BME280;5827;49.482;7.716;2023-05-03T05:49:57;99766.94;;;9.37;83.69
11542;BME280;5827;49.482;7.716;2023-05-03T05:51:58;99760.28;;;9.59;81.45
11542;BME280;5827;49.482;7.716;2023-05-03T05:54:00;99769.47;;;9.77;81.96
11542;BME280;5827;49.482;7.716;2023-05-03T05:56:01;99768.97;;;9.93;81.69
11542;BME280;5827;49.482;7.716;2023-05-03T05:58:03;99765.91;;;10.21;81.82
11542;BME280;5827;49.482;7.716;2023-05-03T06:00:05;99768.19;;;10.24;80.71
11542;BME280;5827;49.482;7.716;2023-05-03T06:02:15;99778.19;;;10.35;79.82
11542;BME280;5827;49.482;7.716;2023-05-03T06:04:16;99781.63;;;10.74;78.40
11542;BME280;5827;49.482;7.716;2023-05-03T06:06:18;99788.94;;;10.85;76.66
11542;BME280;5827;49.482;7.716;2023-05-03T06:08:19;99778.03;;;9.47;84.69
11542;BME280;5827;49.482;7.716;2023-05-03T06:10:21;99781.00;;;10.54;81.39
11542;BME280;5827;49.482;7.716;2023-05-03T06:12:22;99794.56;;;11.02;80.46
11542;BME280;5827;49.482;7.716;2023-05-03T06:14:24;99801.72;;;11.08;76.41
11542;BME280;5827;49.482;7.716;2023-05-03T06:16:25;99803.09;;;11.54;75.50
11542;BME280;5827;49.482;7.716;2023-05-03T06:18:28;99806.13;;;11.03;74.78
11542;BME280;5827;49.482;7.716;2023-05-03T06:20:30;99800.72;;;11.09;76.37
11542;BME280;5827;49.482;7.716;2023-05-03T06:22:31;99811.94;;;11.00;75.54
11542;BME280;5827;49.482;7.716;2023-05-03T06:24:33;99828.16;;;11.48;71.81
11542;BME280;5827;49.482;7.716;2023-05-03T06:26:34;99825.41;;;11.18;71.94
11542;BME280;5827;49.482;7.716;2023-05-03T06:28:36;99831.91;;;11.65;72.25
11542;BME280;5827;49.482;7.716;2023-05-03T06:30:37;99829.97;;;11.91;71.51
11542;BME280;5827;49.482;7.716;2023-05-03T06:32:40;99817.38;;;11.36;72.73
11542;BME280;5827;49.482;7.716;2023-05-03T06:34:42;99825.91;;;11.27;72.42
11542;BME280;5827;49.482;7.716;2023-05-03T06:36:44;99817.28;;;11.98;71.22
11542;BME280;5827;49.482;7.716;2023-05-03T06:38:45;99837.50;;;12.72;68.51
11542;BME280;5827;49.482;7.716;2023-05-03T06:40:47;99839.91;;;13.16;66.11
11542;BME280;5827;49.482;7.716;2023-05-03T06:42:49;99847.91;;;13.34;62.71
11542;BME280;5827;49.482;7.716;2023-05-03T06:44:51;99840.22;;;12.96;64.21
11542;BME280;5827;49.482;7.716;2023-05-03T06:46:52;99841.53;;;13.17;63.76
11542;BME280;5827;49.482;7.716;2023-05-03T06:48:54;99837.91;;;12.46;65.79
11542;BME280;5827;49.482;7.716;2023-05-03T06:50:58;99842.88;;;13.38;64.13
11542;BME280;5827;49.482;7.716;2023-05-03T06:52:59;99846.44;;;13.55;61.66
11542;BME280;5827;49.482;7.716;2023-05-03T06:55:01;99834.00;;;13.78;62.08
11542;BME280;5827;49.482;7.716;2023-05-03T06:57:03;99829.06;;;12.57;64.56
11542;BME280;5827;49.482;7.716;2023-05-03T06:59:06;99830.66;;;13.12;65.27
11542;BME280;5827;49.482;7.716;2023-05-03T07:01:08;99823.47;;;12.82;65.27
11542;BME280;5827;49.482;7.716;2023-05-03T07:03:09;99824.56;;;13.05;63.85
11542;BME280;5827;49.482;7.716;2023-05-03T07:05:11;99820.38;;;13.20;65.09
11542;BME280;5827;49.482;7.716;2023-05-03T07:07:14;99820.69;;;12.89;65.02
11542;BME280;5827;49.482;7.716;2023-05-03T07:09:15;99818.59;;;12.91;65.14
11542;BME280;5827;49.482;7.716;2023-05-03T07:11:18;99815.88;;;12.26;67.18
11542;BME280;5827;49.482;7.716;2023-05-03T07:13:22;99822.31;;;12.66;64.77
11542;BME280;5827;49.482;7.716;2023-05-03T07:15:24;99823.28;;;12.84;64.05
11542;BME280;5827;49.482;7.716;2023-05-03T07:17:25;99819.06;;;13.00;66.19
11542;BME280;5827;49.482;7.716;2023-05-03T07:19:27;99818.00;;;13.01;64.44
11542;BME280;5827;49.482;7.716;2023-05-03T07:21:29;99829.94;;;13.63;62.02
11542;BME280;5827;49.482;7.716;2023-05-03T07:23:32;99819.84;;;12.77;63.34
11542;BME280;5827;49.482;7.716;2023-05-03T07:25:33;99830.31;;;13.08;62.91
11542;BME280;5827;49.482;7.716;2023-05-03T07:27:35;99823.38;;;13.01;65.51
11542;BME280;5827;49.482;7.716;2023-05-03T07:29:37;99822.75;;;13.29;64.44
11542;BME280;5827;49.482;7.716;2023-05-03T07:31:38;99817.63;;;12.73;65.33
11542;BME280;5827;49.482;7.716;2023-05-03T07:33:40;99828.78;;;13.12;63.70
11542;BME280;5827;49.482;7.716;2023-05-03T07:35:41;99827.84;;;13.42;63.68
11542;BME280;5827;49.482;7.716;2023-05-03T07:37:42;99813.34;;;12.84;65.12
11542;BME280;5827;49.482;7.716;2023-05-03T07:39:45;99807.88;;;13.26;66.00
11542;BME280;5827;49.482;7.716;2023-05-03T07:41:47;99808.44;;;12.93;65.43
11542;BME280;5827;49.482;7.716;2023-05-03T07:43:48;99796.50;;;13.12;68.80
11542;BME280;5827;49.482;7.716;2023-05-03T07:45:49;99812.56;;;13.83;66.91
11542;BME280;5827;49.482;7.716;2023-05-03T07:47:51;99806.75;;;13.62;65.17
11542;BME280;5827;49.482;7.716;2023-05-03T07:49:53;99806.72;;;13.74;65.06
11542;BME280;5827;49.482;7.716;2023-05-03T07:51:54;99802.09;;;13.98;66.67
11542;BME280;5827;49.482;7.716;2023-05-03T07:53:56;99804.19;;;13.96;65.91
11542;BME280;5827;49.482;7.716;2023-05-03T07:55:59;99810.84;;;14.34;62.49
11542;BME280;5827;49.482;7.716;2023-05-03T07:58:00;99806.19;;;14.01;62.77
11542;BME280;5827;49.482;7.716;2023-05-03T08:00:03;99804.13;;;13.39;65.77
11542;BME280;5827;49.482;7.716;2023-05-03T08:02:05;99806.81;;;13.27;65.55
11542;BME280;5827;49.482;7.716;2023-05-03T08:04:06;99798.78;;;13.79;67.93
11542;BME280;5827;49.482;7.716;2023-05-03T08:06:08;99809.97;;;13.47;65.61
11542;BME280;5827;49.482;7.716;2023-05-03T08:08:09;99820.03;;;13.92;64.50
11542;BME280;5827;49.482;7.716;2023-05-03T08:10:13;99810.81;;;13.88;65.52
11542;BME280;5827;49.482;7.716;2023-05-03T08:12:16;99799.50;;;13.63;65.48
11542;BME280;5827;49.482;7.716;2023-05-03T08:14:17;99814.53;;;13.47;62.79
11542;BME280;5827;49.482;7.716;2023-05-03T08:16:18;99808.16;;;13.65;63.03
11542;BME280;5827;49.482;7.716;2023-05-03T08:18:20;99808.59;;;13.85;64.72
11542;BME280;5827;49.482;7.716;2023-05-03T08:20:22;99811.72;;;14.51;64.25
11542;BME280;5827;49.482;7.716;2023-05-03T08:22:26;99809.28;;;13.81;63.66
11542;BME280;5827;49.482;7.716;2023-05-03T08:24:27;99815.16;;;14.06;64.30
11542;BME280;5827;49.482;7.716;2023-05-03T08:26:29;99812.06;;;14.43;62.99
11542;BME280;5827;49.482;7.716;2023-05-03T08:28:32;99818.72;;;14.07;62.03
11542;BME280;5827;49.482;7.716;2023-05-03T08:30:34;99811.00;;;14.72;62.79
11542;BME280;5827;49.482;7.716;2023-05-03T08:32:36;99798.34;;;14.73;64.51
11542;BME280;5827;49.482;7.716;2023-05-03T08:34:38;99805.69;;;14.94;62.76
11542;BME280;5827;49.482;7.716;2023-05-03T08:36:39;99820.25;;;14.77;61.55
11542;BME280;5827;49.482;7.716;2023-05-03T08:38:41;99808.94;;;14.17;61.03
11542;BME280;5827;49.482;7.716;2023-05-03T08:40:43;99792.19;;;14.78;63.26
11542;BME280;5827;49.482;7.716;2023-05-03T08:42:48;99804.50;;;14.11;63.25
11542;BME280;5827;49.482;7.716;2023-05-03T08:44:51;99807.91;;;14.81;63.05
11542;BME280;5827;49.482;7.716;2023-05-03T08:46:53;99804.63;;;14.79;59.96
11542;BME280;5827;49.482;7.716;2023-05-03T08:48:54;99801.25;;;15.05;60.21
11542;BME280;5827;49.482;7.716;2023-05-03T08:50:56;99806.00;;;14.98;61.10
11542;BME280;5827;49.482;7.716;2023-05-03T08:52:59;99796.94;;;15.43;63.29
11542;BME280;5827;49.482;7.716;2023-05-03T08:55:00;99802.84;;;15.40;60.95
11542;BME280;5827;49.482;7.716;2023-05-03T08:57:03;99811.56;;;15.86;60.05
11542;BME280;5827;49.482;7.716;2023-05-03T08:59:04;99812.50;;;15.74;57.22
11542;BME280;5827;49.482;7.716;2023-05-03T09:01:09;99811.75;;;14.85;57.69
11542;BME280;5827;49.482;7.716;2023-05-03T09:03:11;99790.84;;;15.31;61.36
11542;BME280;5827;49.482;7.716;2023-05-03T09:05:30;99804.06;;;15.49;58.88
11542;BME280;5827;49.482;7.716;2023-05-03T09:07:32;99801.03;;;14.90;59.12
11542;BME280;5827;49.482;7.716;2023-05-03T09:09:34;99795.53;;;15.18;61.72
11542;BME280;5827;49.482;7.716;2023-05-03T09:11:37;99796.81;;;15.71;62.81
11542;BME280;5827;49.482;7.716;2023-05-03T09:13:39;99808.50;;;15.77;57.83
11542;BME280;5827;49.482;7.716;2023-05-03T09:15:40;99808.38;;;15.50;57.98
11542;BME280;5827;49.482;7.716;2023-05-03T09:17:45;99813.78;;;15.50;58.74
11542;BME280;5827;49.482;7.716;2023-05-03T09:20:07;99808.44;;;15.55;59.28
11542;BME280;5827;49.482;7.716;2023-05-03T09:22:09;99803.03;;;15.55;59.52
11542;BME280;5827;49.482;7.716;2023-05-03T09:24:14;99803.34;;;15.37;59.27
11542;BME280;5827;49.482;7.716;2023-05-03T09:26:26;99800.19;;;15.23;58.88
11542;BME280;5827;49.482;7.716;2023-05-03T09:28:28;99792.31;;;15.60;61.41
11542;BME280;5827;49.482;7.716;2023-05-03T09:30:29;99801.94;;;15.73;59.52
11542;BME280;5827;49.482;7.716;2023-05-03T09:32:47;99805.41;;;15.51;58.68
11542;BME280;5827;49.482;7.716;2023-05-03T09:34:49;99789.56;;;15.77;59.75
11542;BME280;5827;49.482;7.716;2023-05-03T09:36:51;99785.84;;;16.05;59.86
11542;BME280;5827;49.482;7.716;2023-05-03T09:38:53;99796.56;;;15.56;58.82
11542;BME280;5827;49.482;7.716;2023-05-03T09:40:55;99792.22;;;15.33;58.65
11542;BME280;5827;49.482;7.716;2023-05-03T09:43:07;99795.78;;;15.39;59.10
11542;BME280;5827;49.482;7.716;2023-05-03T09:45:08;99788.09;;;14.92;59.38
11542;BME280;5827;49.482;7.716;2023-05-03T09:47:10;99783.09;;;15.17;59.29
11542;BME280;5827;49.482;7.716;2023-05-03T09:49:13;99786.41;;;15.63;58.84
11542;BME280;5827;49.482;7.716;2023-05-03T09:51:15;99777.22;;;16.08;59.80
11542;BME280;5827;49.482;7.716;2023-05-03T09:53:18;99785.78;;;15.17;59.95
11542;BME280;5827;49.482;7.716;2023-05-03T09:55:21;99778.38;;;15.08;60.57
11542;BME280;5827;49.482;7.716;2023-05-03T09:57:25;99785.06;;;15.44;58.91
11542;BME280;5827;49.482;7.716;2023-05-03T09:59:26;99784.94;;;15.72;58.21
11542;BME280;5827;49.482;7.716;2023-05-03T10:01:28;99792.56;;;15.59;57.04
11542;BME280;5827;49.482;7.716;2023-05-03T10:03:33;99777.28;;;16.13;61.10
11542;BME280;5827;49.482;7.716;2023-05-03T10:05:44;99786.78;;;15.94;57.43
11542;BME280;5827;49.482;7.716;2023-05-03T10:07:48;99780.16;;;16.07;58.42
11542;BME280;5827;49.482;7.716;2023-05-03T10:09:51;99775.44;;;15.70;58.50
11542;BME280;5827;49.482;7.716;2023-05-03T10:11:54;99772.09;;;16.12;57.88
11542;BME280;5827;49.482;7.716;2023-05-03T10:13:58;99780.72;;;15.82;56.93
11542;BME280;5827;49.482;7.716;2023-05-03T10:16:02;99767.31;;;15.70;59.19
11542;BME280;5827;49.482;7.716;2023-05-03T10:18:06;99778.06;;;15.87;58.14
11542;BME280;5827;49.482;7.716;2023-05-03T10:20:12;99769.31;;;15.36;58.50
11542;BME280;5827;49.482;7.716;2023-05-03T10:22:16;99766.50;;;15.69;59.45
11542;BME280;5827;49.482;7.716;2023-05-03T10:24:18;99756.91;;;16.06;60.88
11542;BME280;5827;49.482;7.716;2023-05-03T10:26:20;99775.78;;;16.27;56.44
11542;BME280;5827;49.482;7.716;2023-05-03T10:28:21;99769.69;;;15.66;58.40
11542;BME280;5827;49.482;7.716;2023-05-03T10:30:27;99772.28;;;16.27;57.41
11542;BME280;5827;49.482;7.716;2023-05-03T10:32:35;99763.41;;;15.83;57.36
11542;BME280;5827;49.482;7.716;2023-05-03T10:34:38;99775.75;;;16.22;56.81
11542;BME280;5827;49.482;7.716;2023-05-03T10:36:41;99763.72;;;16.08;56.79
11542;BME280;5827;49.482;7.716;2023-05-03T10:38:45;99755.56;;;16.35;57.84
11542;BME280;5827;49.482;7.716;2023-05-03T10:40:47;99753.38;;;16.64;57.64
11542;BME280;5827;49.482;7.716;2023-05-03T10:42:50;99770.63;;;16.58;55.43
11542;BME280;5827;49.482;7.716;2023-05-03T10:44:53;99765.75;;;16.55;55.16
11542;BME280;5827;49.482;7.716;2023-05-03T10:46:55;99756.00;;;15.95;57.02
11542;BME280;5827;49.482;7.716;2023-05-03T10:49:19;99752.94;;;16.40;56.55
11542;BME280;5827;49.482;7.716;2023-05-03T10:51:31;99749.59;;;16.65;57.89
11542;BME280;5827;49.482;7.716;2023-05-03T10:53:38;99752.19;;;16.82;56.08
11542;BME280;5827;49.482;7.716;2023-05-03T10:55:59;99758.03;;;16.69;54.31
11542;BME280;5827;49.482;7.716;2023-05-03T10:58:01;99749.19;;;17.21;56.57
11542;BME280;5827;49.482;7.716;2023-05-03T11:00:03;99749.53;;;17.40;55.09